sensor_id;sensor_type;location;lat;lon;timestamp;pressure;altitude;pressure_sealevel;temperature;humidity
49645;BME280;36494;50.730;-1.932;2023-11-19T00:01:24;100508.58;;;12.17;100.00
49645;BME280;36494;50.730;-1.932;2023-11-19T00:03:49;100502.52;;;12.16;100.00
49645;BME280;36494;50.730;-1.932;2023-11-19T00:06:15;100496.61;;;12.21;100.00
49645;BME280;36494;50.730;-1.932;2023-11-19T00:08:40;100494.34;;;12.21;100.00
49645;BME280;36494;50.730;-1.932;2023-11-19T00:11:09;100498.08;;;12.16;100.00
49645;BME280;36494;50.730;-1.932;2023-11-19T00:13:31;100495.72;;;12.16;100.00
49645;BME280;36494;50.730;-1.932;2023-11-19T00:15:57;100499.57;;;12.10;100.00
49645;BME280;36494;50.730;-1.932;2023-11-19T00:18:22;100501.49;;;12.10;100.00
49645;BME280;36494;50.730;-1.932;2023-11-19T00:20:47;100502.76;;;12.07;100.00
49645;BME280;36494;50.730;-1.932;2023-11-19T00:23:13;100499.84;;;12.08;100.00
49645;BME280;36494;50.730;-1.932;2023-11-19T00:25:39;100501.81;;;12.05;100.00
49645;BME280;36494;50.730;-1.932;2023-11-19T00:28:04;100497.06;;;12.02;100.00
49645;BME280;36494;50.730;-1.932;2023-11-19T00:30:29;100502.52;;;12.07;100.00
49645;BME280;36494;50.730;-1.932;2023-11-19T00:32:54;100505.99;;;12.08;100.00
49645;BME280;36494;50.730;-1.932;2023-11-19T00:35:20;100511.20;;;12.15;100.00
49645;BME280;36494;50.730;-1.932;2023-11-19T00:37:45;100513.04;;;12.13;100.00
49645;BME280;36494;50.730;-1.932;2023-11-19T00:40:11;100514.88;;;12.15;100.00
49645;BME280;36494;50.730;-1.932;2023-11-19T00:42:37;100513.26;;;12.13;100.00
49645;BME280;36494;50.730;-1.932;2023-11-19T00:45:03;100517.05;;;12.21;100.00
49645;BME280;36494;50.730;-1.932;2023-11-19T00:47:27;100517.83;;;12.13;100.00
49645;BME280;36494;50.730;-1.932;2023-11-19T00:49:53;100512.26;;;12.22;100.00
49645;BME280;36494;50.730;-1.932;2023-11-19T00:52:18;100517.87;;;12.21;100.00
49645;BME280;36494;50.730;-1.932;2023-11-19T00:54:43;100513.84;;;12.21;100.00
49645;BME280;36494;50.730;-1.932;2023-11-19T00:57:08;100506.20;;;12.20;100.00
49645;BME280;36494;50.730;-1.932;2023-11-19T00:59:34;100501.20;;;12.29;100.00
49645;BME280;36494;50.730;-1.932;2023-11-19T01:01:59;100511.95;;;12.25;100.00
49645;BME280;36494;50.730;-1.932;2023-11-19T01:04:25;100500.29;;;12.26;100.00
49645;BME280;36494;50.730;-1.932;2023-11-19T01:06:51;100491.46;;;12.29;100.00
49645;BME280;36494;50.730;-1.932;2023-11-19T01:09:15;100484.84;;;12.35;100.00
49645;BME280;36494;50.730;-1.932;2023-11-19T01:11:41;100490.30;;;12.36;100.00
49645;BME280;36494;50.730;-1.932;2023-11-19T01:14:06;100490.16;;;12.34;100.00
49645;BME280;36494;50.730;-1.932;2023-11-19T01:16:32;100502.93;;;12.39;100.00
49645;BME280;36494;50.730;-1.932;2023-11-19T01:18:57;100501.08;;;12.38;100.00
49645;BME280;36494;50.730;-1.932;2023-11-19T01:21:23;100504.68;;;12.34;100.00
49645;BME280;36494;50.730;-1.932;2023-11-19T01:23:48;100503.74;;;12.36;100.00
49645;BME280;36494;50.730;-1.932;2023-11-19T01:26:14;100502.12;;;12.32;100.00
49645;BME280;36494;50.730;-1.932;2023-11-19T01:28:39;100505.06;;;12.34;100.00
49645;BME280;36494;50.730;-1.932;2023-11-19T01:31:05;100510.52;;;12.38;100.00
49645;BME280;36494;50.730;-1.932;2023-11-19T01:33:30;100508.84;;;12.39;100.00
49645;BME280;36494;50.730;-1.932;2023-11-19T01:35:56;100508.09;;;12.41;100.00
49645;BME280;36494;50.730;-1.932;2023-11-19T01:38:21;100515.18;;;12.37;100.00
49645;BME280;36494;50.730;-1.932;2023-11-19T01:40:46;100506.66;;;12.39;100.00
49645;BME280;36494;50.730;-1.932;2023-11-19T01:43:11;100509.34;;;12.48;100.00
49645;BME280;36494;50.730;-1.932;2023-11-19T01:45:36;100507.90;;;12.51;100.00
49645;BME280;36494;50.730;-1.932;2023-11-19T01:48:02;100506.59;;;12.51;100.00
49645;BME280;36494;50.730;-1.932;2023-11-19T01:50:27;100506.81;;;12.51;100.00
49645;BME280;36494;50.730;-1.932;2023-11-19T01:52:54;100508.46;;;12.46;100.00
49645;BME280;36494;50.730;-1.932;2023-11-19T01:55:19;100497.92;;;12.49;100.00
49645;BME280;36494;50.730;-1.932;2023-11-19T01:57:43;100496.36;;;12.49;100.00
49645;BME280;36494;50.730;-1.932;2023-11-19T02:00:10;100495.41;;;12.51;100.00
49645;BME280;36494;50.730;-1.932;2023-11-19T02:02:34;100493.84;;;12.47;100.00
49645;BME280;36494;50.730;-1.932;2023-11-19T02:05:00;100489.62;;;12.49;100.00
49645;BME280;36494;50.730;-1.932;2023-11-19T02:07:26;100496.53;;;12.50;100.00
49645;BME280;36494;50.730;-1.932;2023-11-19T02:09:51;100494.50;;;12.56;100.00
49645;BME280;36494;50.730;-1.932;2023-11-19T02:12:16;100484.99;;;12.50;100.00
49645;BME280;36494;50.730;-1.932;2023-11-19T02:14:41;100479.98;;;12.50;100.00
49645;BME280;36494;50.730;-1.932;2023-11-19T02:17:07;100481.66;;;12.54;100.00
49645;BME280;36494;50.730;-1.932;2023-11-19T02:19:32;100474.11;;;12.48;100.00
49645;BME280;36494;50.730;-1.932;2023-11-19T02:21:58;100465.34;;;12.49;100.00
49645;BME280;36494;50.730;-1.932;2023-11-19T02:24:26;100460.77;;;12.47;100.00
49645;BME280;36494;50.730;-1.932;2023-11-19T02:26:53;100448.92;;;12.47;100.00
49645;BME280;36494;50.730;-1.932;2023-11-19T02:29:13;100442.08;;;12.45;100.00
49645;BME280;36494;50.730;-1.932;2023-11-19T02:31:39;100424.24;;;12.42;100.00
49645;BME280;36494;50.730;-1.932;2023-11-19T02:34:04;100413.51;;;12.42;100.00
49645;BME280;36494;50.730;-1.932;2023-11-19T02:36:29;100419.61;;;12.39;100.00
49645;BME280;36494;50.730;-1.932;2023-11-19T02:38:55;100419.45;;;12.37;100.00
49645;BME280;36494;50.730;-1.932;2023-11-19T02:41:20;100425.59;;;12.30;100.00
49645;BME280;36494;50.730;-1.932;2023-11-19T02:43:46;100430.80;;;12.29;100.00
49645;BME280;36494;50.730;-1.932;2023-11-19T02:46:11;100433.57;;;12.28;100.00
49645;BME280;36494;50.730;-1.932;2023-11-19T02:48:37;100434.79;;;12.32;100.00
49645;BME280;36494;50.730;-1.932;2023-11-19T02:51:02;100421.96;;;12.34;100.00
49645;BME280;36494;50.730;-1.932;2023-11-19T02:53:28;100422.50;;;12.37;100.00
49645;BME280;36494;50.730;-1.932;2023-11-19T02:55:53;100416.36;;;12.38;100.00
49645;BME280;36494;50.730;-1.932;2023-11-19T02:58:18;100419.10;;;12.33;100.00
49645;BME280;36494;50.730;-1.932;2023-11-19T03:00:44;100420.29;;;12.36;100.00
49645;BME280;36494;50.730;-1.932;2023-11-19T03:03:09;100418.07;;;12.42;100.00
49645;BME280;36494;50.730;-1.932;2023-11-19T03:05:35;100433.27;;;12.40;100.00
49645;BME280;36494;50.730;-1.932;2023-11-19T03:08:00;100424.49;;;12.39;100.00
49645;BME280;36494;50.730;-1.932;2023-11-19T03:10:26;100426.00;;;12.42;100.00
49645;BME280;36494;50.730;-1.932;2023-11-19T03:12:51;100429.60;;;12.41;100.00
49645;BME280;36494;50.730;-1.932;2023-11-19T03:15:17;100432.24;;;12.47;100.00
49645;BME280;36494;50.730;-1.932;2023-11-19T03:17:42;100438.27;;;12.44;100.00
49645;BME280;36494;50.730;-1.932;2023-11-19T03:20:10;100434.08;;;12.44;100.00
49645;BME280;36494;50.730;-1.932;2023-11-19T03:22:33;100440.69;;;12.43;100.00
49645;BME280;36494;50.730;-1.932;2023-11-19T03:24:59;100434.39;;;12.40;100.00
49645;BME280;36494;50.730;-1.932;2023-11-19T03:27:24;100435.15;;;12.42;100.00
49645;BME280;36494;50.730;-1.932;2023-11-19T03:29:50;100435.18;;;12.38;100.00
49645;BME280;36494;50.730;-1.932;2023-11-19T03:32:15;100434.10;;;12.37;100.00
49645;BME280;36494;50.730;-1.932;2023-11-19T03:34:41;100431.32;;;12.31;100.00
49645;BME280;36494;50.730;-1.932;2023-11-19T03:37:07;100423.39;;;12.28;100.00
49645;BME280;36494;50.730;-1.932;2023-11-19T03:39:32;100424.64;;;12.32;100.00
49645;BME280;36494;50.730;-1.932;2023-11-19T03:41:58;100434.19;;;12.28;100.00
49645;BME280;36494;50.730;-1.932;2023-11-19T03:44:23;100424.73;;;12.22;100.00
49645;BME280;36494;50.730;-1.932;2023-11-19T03:46:48;100430.46;;;12.29;100.00
49645;BME280;36494;50.730;-1.932;2023-11-19T03:49:13;100436.97;;;12.27;100.00
49645;BME280;36494;50.730;-1.932;2023-11-19T03:51:38;100432.05;;;12.27;100.00
49645;BME280;36494;50.730;-1.932;2023-11-19T03:54:04;100417.16;;;12.24;100.00
49645;BME280;36494;50.730;-1.932;2023-11-19T03:56:29;100424.21;;;12.27;100.00
49645;BME280;36494;50.730;-1.932;2023-11-19T03:58:54;100419.56;;;12.31;100.00
49645;BME280;36494;50.730;-1.932;2023-11-19T04:01:19;100408.16;;;12.31;100.00
49645;BME280;36494;50.730;-1.932;2023-11-19T04:03:45;100406.26;;;12.35;100.00
49645;BME280;36494;50.730;-1.932;2023-11-19T04:06:10;100402.53;;;12.32;100.00
49645;BME280;36494;50.730;-1.932;2023-11-19T04:08:36;100409.97;;;12.35;100.00
49645;BME280;36494;50.730;-1.932;2023-11-19T04:11:01;100407.58;;;12.25;100.00
49645;BME280;36494;50.730;-1.932;2023-11-19T04:13:26;100405.03;;;12.30;100.00
49645;BME280;36494;50.730;-1.932;2023-11-19T04:15:51;100406.17;;;12.26;100.00
49645;BME280;36494;50.730;-1.932;2023-11-19T04:18:17;100400.77;;;12.30;100.00
49645;BME280;36494;50.730;-1.932;2023-11-19T04:20:42;100407.02;;;12.32;100.00
49645;BME280;36494;50.730;-1.932;2023-11-19T04:23:08;100405.98;;;12.33;100.00
49645;BME280;36494;50.730;-1.932;2023-11-19T04:25:35;100407.88;;;12.33;100.00
49645;BME280;36494;50.730;-1.932;2023-11-19T04:27:58;100398.94;;;12.37;100.00
49645;BME280;36494;50.730;-1.932;2023-11-19T04:30:24;100403.84;;;12.34;100.00
49645;BME280;36494;50.730;-1.932;2023-11-19T04:32:49;100400.96;;;12.36;100.00
49645;BME280;36494;50.730;-1.932;2023-11-19T04:35:15;100398.45;;;12.42;100.00
49645;BME280;36494;50.730;-1.932;2023-11-19T04:37:41;100406.47;;;12.37;100.00
49645;BME280;36494;50.730;-1.932;2023-11-19T04:40:06;100411.02;;;12.40;100.00
49645;BME280;36494;50.730;-1.932;2023-11-19T04:42:31;100409.90;;;12.38;100.00
49645;BME280;36494;50.730;-1.932;2023-11-19T04:44:56;100405.73;;;12.42;100.00
49645;BME280;36494;50.730;-1.932;2023-11-19T04:47:22;100412.46;;;12.44;100.00
49645;BME280;36494;50.730;-1.932;2023-11-19T04:49:48;100416.00;;;12.47;100.00
49645;BME280;36494;50.730;-1.932;2023-11-19T04:52:13;100414.59;;;12.49;100.00
49645;BME280;36494;50.730;-1.932;2023-11-19T04:54:41;100406.60;;;12.45;100.00
49645;BME280;36494;50.730;-1.932;2023-11-19T04:57:04;100409.18;;;12.45;100.00
49645;BME280;36494;50.730;-1.932;2023-11-19T04:59:29;100407.20;;;12.43;100.00
49645;BME280;36494;50.730;-1.932;2023-11-19T05:01:55;100413.89;;;12.44;100.00
49645;BME280;36494;50.730;-1.932;2023-11-19T05:04:21;100404.84;;;12.48;100.00
49645;BME280;36494;50.730;-1.932;2023-11-19T05:06:46;100401.93;;;12.50;100.00
49645;BME280;36494;50.730;-1.932;2023-11-19T05:09:12;100423.41;;;12.52;100.00
49645;BME280;36494;50.730;-1.932;2023-11-19T05:11:37;100435.12;;;12.35;100.00
49645;BME280;36494;50.730;-1.932;2023-11-19T05:14:05;100422.63;;;12.13;100.00
49645;BME280;36494;50.730;-1.932;2023-11-19T05:16:28;100412.42;;;11.86;100.00
49645;BME280;36494;50.730;-1.932;2023-11-19T05:18:54;100419.14;;;11.73;100.00
49645;BME280;36494;50.730;-1.932;2023-11-19T05:21:19;100415.46;;;11.75;100.00
49645;BME280;36494;50.730;-1.932;2023-11-19T05:23:44;100416.92;;;11.76;100.00
49645;BME280;36494;50.730;-1.932;2023-11-19T05:26:16;100415.25;;;11.78;100.00
49645;BME280;36494;50.730;-1.932;2023-11-19T05:28:38;100414.49;;;11.71;100.00
49645;BME280;36494;50.730;-1.932;2023-11-19T05:31:01;100419.49;;;11.64;100.00
49645;BME280;36494;50.730;-1.932;2023-11-19T05:33:27;100420.85;;;11.56;100.00
49645;BME280;36494;50.730;-1.932;2023-11-19T05:35:52;100420.69;;;11.54;100.00
49645;BME280;36494;50.730;-1.932;2023-11-19T05:38:18;100416.67;;;11.55;100.00
49645;BME280;36494;50.730;-1.932;2023-11-19T05:40:43;100412.00;;;11.53;100.00
49645;BME280;36494;50.730;-1.932;2023-11-19T05:43:08;100419.84;;;11.56;100.00
49645;BME280;36494;50.730;-1.932;2023-11-19T05:45:33;100415.96;;;11.52;100.00
49645;BME280;36494;50.730;-1.932;2023-11-19T05:47:58;100414.09;;;11.48;100.00
49645;BME280;36494;50.730;-1.932;2023-11-19T05:50:23;100412.83;;;11.47;100.00
49645;BME280;36494;50.730;-1.932;2023-11-19T05:52:49;100410.22;;;11.44;100.00
49645;BME280;36494;50.730;-1.932;2023-11-19T05:55:14;100403.80;;;11.50;100.00
49645;BME280;36494;50.730;-1.932;2023-11-19T05:57:40;100402.09;;;11.52;100.00
49645;BME280;36494;50.730;-1.932;2023-11-19T06:00:06;100397.97;;;11.47;100.00
49645;BME280;36494;50.730;-1.932;2023-11-19T06:02:32;100403.38;;;11.57;100.00
49645;BME280;36494;50.730;-1.932;2023-11-19T06:04:56;100393.61;;;11.58;100.00
49645;BME280;36494;50.730;-1.932;2023-11-19T06:07:22;100404.83;;;11.58;100.00
49645;BME280;36494;50.730;-1.932;2023-11-19T06:09:48;100399.13;;;11.63;100.00
49645;BME280;36494;50.730;-1.932;2023-11-19T06:12:13;100395.09;;;11.67;100.00
49645;BME280;36494;50.730;-1.932;2023-11-19T06:14:38;100395.14;;;11.63;100.00
49645;BME280;36494;50.730;-1.932;2023-11-19T06:17:04;100391.80;;;11.63;100.00
49645;BME280;36494;50.730;-1.932;2023-11-19T06:19:29;100390.65;;;11.63;100.00
49645;BME280;36494;50.730;-1.932;2023-11-19T06:21:54;100387.85;;;11.67;100.00
49645;BME280;36494;50.730;-1.932;2023-11-19T06:24:20;100378.39;;;11.66;100.00
49645;BME280;36494;50.730;-1.932;2023-11-19T06:26:45;100384.32;;;11.70;100.00
49645;BME280;36494;50.730;-1.932;2023-11-19T06:29:11;100386.74;;;11.72;100.00
49645;BME280;36494;50.730;-1.932;2023-11-19T06:31:36;100384.41;;;11.66;100.00
49645;BME280;36494;50.730;-1.932;2023-11-19T06:34:02;100381.86;;;11.64;100.00
49645;BME280;36494;50.730;-1.932;2023-11-19T06:36:27;100386.82;;;11.70;100.00
49645;BME280;36494;50.730;-1.932;2023-11-19T06:38:53;100379.95;;;11.66;100.00
49645;BME280;36494;50.730;-1.932;2023-11-19T06:41:19;100380.32;;;11.64;100.00
49645;BME280;36494;50.730;-1.932;2023-11-19T06:43:44;100380.63;;;11.66;100.00
49645;BME280;36494;50.730;-1.932;2023-11-19T06:46:14;100376.48;;;11.66;100.00
49645;BME280;36494;50.730;-1.932;2023-11-19T06:48:36;100373.95;;;11.67;100.00
49645;BME280;36494;50.730;-1.932;2023-11-19T06:51:05;100371.49;;;11.63;100.00
49645;BME280;36494;50.730;-1.932;2023-11-19T06:53:26;100370.94;;;11.61;100.00
49645;BME280;36494;50.730;-1.932;2023-11-19T06:55:52;100368.70;;;11.62;100.00
49645;BME280;36494;50.730;-1.932;2023-11-19T06:58:17;100373.03;;;11.62;100.00
49645;BME280;36494;50.730;-1.932;2023-11-19T07:00:42;100375.86;;;11.60;100.00
49645;BME280;36494;50.730;-1.932;2023-11-19T07:03:08;100372.32;;;11.64;100.00
49645;BME280;36494;50.730;-1.932;2023-11-19T07:05:33;100379.54;;;11.63;100.00
49645;BME280;36494;50.730;-1.932;2023-11-19T07:07:58;100372.93;;;11.65;100.00
49645;BME280;36494;50.730;-1.932;2023-11-19T07:10:24;100368.49;;;11.65;100.00
49645;BME280;36494;50.730;-1.932;2023-11-19T07:12:49;100365.23;;;11.63;100.00
49645;BME280;36494;50.730;-1.932;2023-11-19T07:15:14;100364.76;;;11.68;100.00
49645;BME280;36494;50.730;-1.932;2023-11-19T07:17:40;100363.37;;;11.66;100.00
49645;BME280;36494;50.730;-1.932;2023-11-19T07:20:06;100357.03;;;11.63;100.00
49645;BME280;36494;50.730;-1.932;2023-11-19T07:22:32;100357.85;;;11.72;100.00
49645;BME280;36494;50.730;-1.932;2023-11-19T07:24:57;100360.50;;;11.71;100.00
49645;BME280;36494;50.730;-1.932;2023-11-19T07:27:22;100364.24;;;11.68;100.00
49645;BME280;36494;50.730;-1.932;2023-11-19T07:29:47;100369.24;;;11.68;100.00
49645;BME280;36494;50.730;-1.932;2023-11-19T07:32:13;100369.73;;;11.73;100.00
49645;BME280;36494;50.730;-1.932;2023-11-19T07:34:38;100361.22;;;11.80;100.00
49645;BME280;36494;50.730;-1.932;2023-11-19T07:37:03;100366.19;;;11.80;100.00
49645;BME280;36494;50.730;-1.932;2023-11-19T07:39:29;100360.33;;;11.84;100.00
49645;BME280;36494;50.730;-1.932;2023-11-19T07:41:54;100360.05;;;11.86;100.00
49645;BME280;36494;50.730;-1.932;2023-11-19T07:44:20;100352.23;;;11.89;100.00
49645;BME280;36494;50.730;-1.932;2023-11-19T07:46:45;100367.92;;;11.88;100.00
49645;BME280;36494;50.730;-1.932;2023-11-19T07:49:10;100372.29;;;11.86;100.00
49645;BME280;36494;50.730;-1.932;2023-11-19T07:51:36;100380.73;;;11.88;100.00
49645;BME280;36494;50.730;-1.932;2023-11-19T07:54:02;100385.89;;;11.88;100.00
49645;BME280;36494;50.730;-1.932;2023-11-19T07:56:27;100379.14;;;11.88;100.00
49645;BME280;36494;50.730;-1.932;2023-11-19T07:58:53;100386.63;;;11.89;100.00
49645;BME280;36494;50.730;-1.932;2023-11-19T08:01:19;100387.24;;;11.91;100.00
49645;BME280;36494;50.730;-1.932;2023-11-19T08:03:43;100383.74;;;11.91;100.00
49645;BME280;36494;50.730;-1.932;2023-11-19T08:06:08;100384.21;;;11.90;100.00
49645;BME280;36494;50.730;-1.932;2023-11-19T08:08:34;100394.68;;;11.88;100.00
49645;BME280;36494;50.730;-1.932;2023-11-19T08:10:59;100399.31;;;11.90;100.00
49645;BME280;36494;50.730;-1.932;2023-11-19T08:13:25;100388.19;;;11.94;100.00
49645;BME280;36494;50.730;-1.932;2023-11-19T08:15:50;100393.24;;;11.98;100.00
49645;BME280;36494;50.730;-1.932;2023-11-19T08:18:15;100391.02;;;11.97;100.00
49645;BME280;36494;50.730;-1.932;2023-11-19T08:20:40;100404.83;;;12.02;100.00
49645;BME280;36494;50.730;-1.932;2023-11-19T08:23:05;100404.80;;;12.11;100.00
49645;BME280;36494;50.730;-1.932;2023-11-19T08:25:31;100403.61;;;12.14;100.00
49645;BME280;36494;50.730;-1.932;2023-11-19T08:27:56;100403.43;;;12.20;100.00
49645;BME280;36494;50.730;-1.932;2023-11-19T08:30:22;100404.77;;;12.22;100.00
49645;BME280;36494;50.730;-1.932;2023-11-19T08:32:47;100405.59;;;12.25;100.00
49645;BME280;36494;50.730;-1.932;2023-11-19T08:35:12;100404.00;;;12.31;100.00
49645;BME280;36494;50.730;-1.932;2023-11-19T08:37:38;100400.08;;;12.31;100.00
49645;BME280;36494;50.730;-1.932;2023-11-19T08:40:04;100407.48;;;12.38;100.00
49645;BME280;36494;50.730;-1.932;2023-11-19T08:42:29;100411.80;;;12.41;100.00
49645;BME280;36494;50.730;-1.932;2023-11-19T08:44:54;100407.05;;;12.37;100.00
49645;BME280;36494;50.730;-1.932;2023-11-19T08:47:20;100403.45;;;12.39;100.00
49645;BME280;36494;50.730;-1.932;2023-11-19T08:49:46;100397.96;;;12.39;100.00
49645;BME280;36494;50.730;-1.932;2023-11-19T08:52:11;100399.09;;;12.39;100.00
49645;BME280;36494;50.730;-1.932;2023-11-19T08:54:36;100397.34;;;12.42;100.00
49645;BME280;36494;50.730;-1.932;2023-11-19T08:57:01;100397.73;;;12.46;100.00
49645;BME280;36494;50.730;-1.932;2023-11-19T08:59:26;100407.01;;;12.48;100.00
49645;BME280;36494;50.730;-1.932;2023-11-19T09:01:52;100399.32;;;12.53;100.00
49645;BME280;36494;50.730;-1.932;2023-11-19T09:04:17;100406.74;;;12.54;100.00
49645;BME280;36494;50.730;-1.932;2023-11-19T09:06:43;100400.05;;;12.54;100.00
49645;BME280;36494;50.730;-1.932;2023-11-19T09:09:08;100389.51;;;12.58;100.00
49645;BME280;36494;50.730;-1.932;2023-11-19T09:11:33;100397.32;;;12.57;100.00
49645;BME280;36494;50.730;-1.932;2023-11-19T09:13:58;100396.21;;;12.57;100.00
49645;BME280;36494;50.730;-1.932;2023-11-19T09:16:24;100400.51;;;12.59;100.00
49645;BME280;36494;50.730;-1.932;2023-11-19T09:18:49;100389.66;;;12.60;100.00
49645;BME280;36494;50.730;-1.932;2023-11-19T09:21:14;100388.41;;;12.56;100.00
49645;BME280;36494;50.730;-1.932;2023-11-19T09:23:40;100379.21;;;12.57;100.00
49645;BME280;36494;50.730;-1.932;2023-11-19T09:26:06;100372.07;;;12.56;100.00
49645;BME280;36494;50.730;-1.932;2023-11-19T09:28:31;100375.19;;;12.55;100.00
49645;BME280;36494;50.730;-1.932;2023-11-19T09:30:56;100370.18;;;12.56;100.00
49645;BME280;36494;50.730;-1.932;2023-11-19T09:33:22;100373.52;;;12.56;100.00
49645;BME280;36494;50.730;-1.932;2023-11-19T09:35:47;100377.90;;;12.54;100.00
49645;BME280;36494;50.730;-1.932;2023-11-19T09:38:13;100370.79;;;12.55;100.00
49645;BME280;36494;50.730;-1.932;2023-11-19T09:40:39;100370.51;;;12.59;100.00
49645;BME280;36494;50.730;-1.932;2023-11-19T09:43:04;100380.11;;;12.60;100.00
49645;BME280;36494;50.730;-1.932;2023-11-19T09:45:32;100374.14;;;12.58;100.00
49645;BME280;36494;50.730;-1.932;2023-11-19T09:47:55;100376.68;;;12.54;100.00
49645;BME280;36494;50.730;-1.932;2023-11-19T09:50:20;100374.87;;;12.61;100.00
49645;BME280;36494;50.730;-1.932;2023-11-19T09:52:47;100381.12;;;12.68;100.00
49645;BME280;36494;50.730;-1.932;2023-11-19T09:55:11;100368.15;;;12.68;100.00
49645;BME280;36494;50.730;-1.932;2023-11-19T09:57:38;100378.99;;;12.75;100.00
49645;BME280;36494;50.730;-1.932;2023-11-19T10:00:02;100376.93;;;12.74;100.00
49645;BME280;36494;50.730;-1.932;2023-11-19T10:02:29;100371.22;;;12.69;100.00
49645;BME280;36494;50.730;-1.932;2023-11-19T10:04:54;100368.66;;;12.70;100.00
49645;BME280;36494;50.730;-1.932;2023-11-19T10:07:19;100373.13;;;12.76;100.00
49645;BME280;36494;50.730;-1.932;2023-11-19T10:09:44;100378.13;;;12.82;100.00
49645;BME280;36494;50.730;-1.932;2023-11-19T10:12:09;100393.44;;;12.87;100.00
49645;BME280;36494;50.730;-1.932;2023-11-19T10:14:37;100380.08;;;12.87;100.00
49645;BME280;36494;50.730;-1.932;2023-11-19T10:17:01;100379.68;;;12.89;100.00
49645;BME280;36494;50.730;-1.932;2023-11-19T10:19:26;100376.38;;;12.80;100.00
49645;BME280;36494;50.730;-1.932;2023-11-19T10:21:52;100365.32;;;12.79;100.00
49645;BME280;36494;50.730;-1.932;2023-11-19T10:26:42;100374.24;;;12.78;100.00
49645;BME280;36494;50.730;-1.932;2023-11-19T10:29:07;100366.87;;;12.77;100.00
49645;BME280;36494;50.730;-1.932;2023-11-19T10:31:32;100368.78;;;12.80;100.00
49645;BME280;36494;50.730;-1.932;2023-11-19T10:33:58;100371.35;;;12.84;100.00
49645;BME280;36494;50.730;-1.932;2023-11-19T10:38:53;100374.10;;;12.77;100.00
49645;BME280;36494;50.730;-1.932;2023-11-19T10:41:27;100360.35;;;12.74;100.00
49645;BME280;36494;50.730;-1.932;2023-11-19T10:43:43;100360.03;;;12.78;100.00
49645;BME280;36494;50.730;-1.932;2023-11-19T10:46:10;100363.74;;;12.82;100.00
49645;BME280;36494;50.730;-1.932;2023-11-19T10:48:31;100380.54;;;12.85;100.00
49645;BME280;36494;50.730;-1.932;2023-11-19T10:50:57;100367.86;;;12.93;100.00
49645;BME280;36494;50.730;-1.932;2023-11-19T10:53:23;100369.30;;;13.01;100.00
49645;BME280;36494;50.730;-1.932;2023-11-19T10:55:48;100374.58;;;12.96;100.00
49645;BME280;36494;50.730;-1.932;2023-11-19T10:58:15;100385.70;;;12.99;100.00
49645;BME280;36494;50.730;-1.932;2023-11-19T11:00:43;100373.32;;;12.94;100.00
49645;BME280;36494;50.730;-1.932;2023-11-19T11:03:10;100380.89;;;12.95;100.00
49645;BME280;36494;50.730;-1.932;2023-11-19T11:05:32;100387.68;;;12.91;100.00
49645;BME280;36494;50.730;-1.932;2023-11-19T11:07:55;100382.13;;;12.87;100.00
49645;BME280;36494;50.730;-1.932;2023-11-19T11:10:19;100377.32;;;12.83;100.00
49645;BME280;36494;50.730;-1.932;2023-11-19T11:12:45;100383.25;;;12.78;100.00
49645;BME280;36494;50.730;-1.932;2023-11-19T11:15:11;100376.92;;;12.84;100.00
49645;BME280;36494;50.730;-1.932;2023-11-19T11:17:36;100376.55;;;12.82;100.00
49645;BME280;36494;50.730;-1.932;2023-11-19T11:20:01;100381.54;;;12.82;100.00
49645;BME280;36494;50.730;-1.932;2023-11-19T11:22:28;100373.73;;;12.63;100.00
49645;BME280;36494;50.730;-1.932;2023-11-19T11:27:36;100382.20;;;12.49;100.00
49645;BME280;36494;50.730;-1.932;2023-11-19T11:29:50;100378.55;;;12.55;100.00
49645;BME280;36494;50.730;-1.932;2023-11-19T11:32:17;100381.94;;;12.54;100.00
49645;BME280;36494;50.730;-1.932;2023-11-19T11:34:44;100375.04;;;12.40;100.00
49645;BME280;36494;50.730;-1.932;2023-11-19T11:37:07;100369.81;;;12.42;100.00
49645;BME280;36494;50.730;-1.932;2023-11-19T11:39:25;100366.87;;;12.52;100.00
49645;BME280;36494;50.730;-1.932;2023-11-19T11:44:14;100362.35;;;12.47;100.00
49645;BME280;36494;50.730;-1.932;2023-11-19T11:46:54;100364.74;;;12.54;100.00
49645;BME280;36494;50.730;-1.932;2023-11-19T11:49:05;100363.09;;;12.59;100.00
49645;BME280;36494;50.730;-1.932;2023-11-19T11:53:58;100362.37;;;12.63;100.00
49645;BME280;36494;50.730;-1.932;2023-11-19T11:56:22;100356.07;;;12.69;100.00
49645;BME280;36494;50.730;-1.932;2023-11-19T11:58:47;100363.33;;;12.77;100.00
49645;BME280;36494;50.730;-1.932;2023-11-19T12:01:15;100367.88;;;12.86;100.00
49645;BME280;36494;50.730;-1.932;2023-11-19T12:03:39;100358.87;;;12.92;100.00
49645;BME280;36494;50.730;-1.932;2023-11-19T12:06:04;100344.83;;;12.98;100.00
49645;BME280;36494;50.730;-1.932;2023-11-19T12:08:29;100340.22;;;13.01;100.00
49645;BME280;36494;50.730;-1.932;2023-11-19T12:10:57;100339.86;;;13.06;100.00
49645;BME280;36494;50.730;-1.932;2023-11-19T12:13:20;100344.05;;;13.13;100.00
49645;BME280;36494;50.730;-1.932;2023-11-19T12:18:10;100335.72;;;13.37;100.00
49645;BME280;36494;50.730;-1.932;2023-11-19T12:20:35;100331.88;;;13.25;100.00
49645;BME280;36494;50.730;-1.932;2023-11-19T12:23:04;100333.37;;;13.27;100.00
49645;BME280;36494;50.730;-1.932;2023-11-19T12:25:27;100337.00;;;13.32;100.00
49645;BME280;36494;50.730;-1.932;2023-11-19T12:27:53;100333.26;;;13.30;100.00
49645;BME280;36494;50.730;-1.932;2023-11-19T12:30:17;100333.52;;;13.22;100.00
49645;BME280;36494;50.730;-1.932;2023-11-19T12:32:45;100335.14;;;13.19;100.00
49645;BME280;36494;50.730;-1.932;2023-11-19T12:35:09;100335.89;;;13.11;100.00